createdAt,value
2022-09-03T00:01:25.424Z,101160.52
2022-09-03T00:03:58.718Z,101159.70
2022-09-03T00:06:33.274Z,101159.70
2022-09-03T00:09:22.971Z,101151.43
2022-09-03T00:11:59.840Z,101160.48
2022-09-03T00:15:05.302Z,101160.95
2022-09-03T00:17:51.638Z,101165.88
2022-09-03T00:20:28.061Z,101162.19
2022-09-03T00:22:56.664Z,101163.36
2022-09-03T00:25:42.057Z,101162.94
2022-09-03T00:28:16.920Z,101157.18
2022-09-03T00:30:45.414Z,101161.27
2022-09-03T00:33:20.295Z,101173.66
2022-09-03T00:35:50.779Z,101168.34
2022-09-03T00:38:18.515Z,101169.61
2022-09-03T00:40:58.192Z,101165.48
2022-09-03T00:43:35.509Z,101160.52
2022-09-03T00:46:49.234Z,101161.76
2022-09-03T00:49:37.983Z,101162.25
2022-09-03T00:52:36.958Z,101169.28
2022-09-03T00:55:23.273Z,101175.82
2022-09-03T00:58:13.559Z,101184.52
2022-09-03T01:00:43.938Z,101184.09
2022-09-03T01:03:34.890Z,101190.70
2022-09-03T01:06:08.949Z,101190.34
2022-09-03T01:08:52.368Z,101184.55
2022-09-03T01:11:48.427Z,101190.70
2022-09-03T01:14:37.905Z,101198.55
2022-09-03T01:17:38.195Z,101212.21
2022-09-03T01:20:22.008Z,101222.64
2022-09-03T01:23:08.356Z,101218.98
2022-09-03T01:25:54.534Z,101228.00
2022-09-03T01:28:34.009Z,101236.30
2022-09-03T01:31:28.053Z,101254.42
2022-09-03T01:34:08.913Z,101244.45
2022-09-03T01:36:40.439Z,101242.45
2022-09-03T01:39:09.169Z,101228.85
2022-09-03T01:42:04.005Z,101239.97
2022-09-03T01:44:58.733Z,101237.45
2022-09-03T01:47:53.554Z,101235.03
2022-09-03T01:50:44.362Z,101236.66
2022-09-03T01:53:36.258Z,101228.43
2022-09-03T01:57:00.434Z,101225.12
2022-09-03T01:59:32.240Z,101228.00
2022-09-03T02:02:19.622Z,101227.22
2022-09-03T02:05:10.851Z,101231.34
2022-09-03T02:07:46.510Z,101228.10
2022-09-03T02:10:22.756Z,101231.50
2022-09-03T02:12:53.175Z,101228.66
2022-09-03T02:15:23.378Z,101223.33
2022-09-03T02:17:51.343Z,101225.42
2022-09-03T02:20:21.643Z,101221.30
2022-09-03T02:22:49.897Z,101229.54
2022-09-03T02:25:18.281Z,101229.54
2022-09-03T02:27:46.264Z,101232.45
2022-09-03T02:30:14.104Z,101230.33
2022-09-03T02:32:42.023Z,101230.75
2022-09-03T02:35:10.464Z,101234.09
2022-09-03T02:37:38.222Z,101238.27
2022-09-03T02:40:11.341Z,101233.30
2022-09-03T02:42:39.411Z,101228.36
2022-09-03T02:45:22.421Z,101212.24
2022-09-03T02:47:51.934Z,101213.09
2022-09-03T02:50:19.774Z,101220.48
2022-09-03T02:52:47.943Z,101227.80
2022-09-03T02:55:16.775Z,101221.66
2022-09-03T02:57:44.711Z,101217.09
2022-09-03T03:00:12.873Z,101216.73
2022-09-03T03:02:40.892Z,101227.80
2022-09-03T03:05:11.307Z,101232.74
2022-09-03T03:07:39.728Z,101234.34
2022-09-03T03:10:08.005Z,101235.62
2022-09-03T03:12:36.207Z,101238.47
2022-09-03T03:15:04.079Z,101250.01
2022-09-03T03:17:32.907Z,101249.62
2022-09-03T03:20:00.672Z,101251.67
2022-09-03T03:22:28.472Z,101241.73
2022-09-03T03:24:58.120Z,101240.04
2022-09-03T03:27:25.993Z,101245.76
2022-09-03T03:29:53.769Z,101244.97
2022-09-03T03:32:21.762Z,101250.20
2022-09-03T03:34:49.587Z,101252.27
2022-09-03T03:37:17.414Z,101249.48
2022-09-03T03:39:45.572Z,101254.78
2022-09-03T03:42:13.387Z,101248.93
2022-09-03T03:44:41.169Z,101241.87
2022-09-03T03:47:09.007Z,101250.53
2022-09-03T03:49:36.830Z,101248.90
2022-09-03T03:52:05.580Z,101251.31
2022-09-03T03:54:33.381Z,101254.26
2022-09-03T03:57:01.244Z,101265.80
2022-09-03T03:59:29.020Z,101268.74
2022-09-03T04:01:56.840Z,101271.26
2022-09-03T04:04:24.717Z,101271.66
2022-09-03T04:06:52.465Z,101268.32
2022-09-03T04:09:20.360Z,101278.62
2022-09-03T04:11:48.175Z,101285.22
2022-09-03T04:14:15.982Z,101283.55
2022-09-03T04:16:44.421Z,101290.52
2022-09-03T04:19:12.342Z,101293.43
2022-09-03T04:21:40.383Z,101299.61
2022-09-03T04:24:08.568Z,101305.33
2022-09-03T04:26:36.417Z,101301.21
2022-09-03T04:29:06.038Z,101312.30
2022-09-03T04:31:34.025Z,101303.63
2022-09-03T04:34:01.999Z,101283.42
2022-09-03T04:36:31.201Z,101301.11
2022-09-03T04:39:00.388Z,101304.80
2022-09-03T04:41:29.286Z,101302.29
2022-09-03T04:43:58.026Z,101316.67
2022-09-03T04:46:28.016Z,101315.40
2022-09-03T04:48:56.143Z,101307.59
2022-09-03T04:51:25.624Z,101330.60
2022-09-03T04:53:59.375Z,101319.78
2022-09-03T04:56:29.070Z,101331.32
2022-09-03T04:58:58.470Z,101324.72
2022-09-03T05:01:28.053Z,101311.05
2022-09-03T05:03:57.346Z,101316.45
2022-09-03T05:06:26.758Z,101323.84
2022-09-03T05:08:55.489Z,101308.99
2022-09-03T05:11:23.830Z,101307.72
2022-09-03T05:13:52.364Z,101312.72
2022-09-03T05:16:20.356Z,101301.93
2022-09-03T05:18:48.498Z,101305.27
2022-09-03T05:21:17.675Z,101302.78
2022-09-03T05:23:49.267Z,101311.51
2022-09-03T05:26:18.805Z,101309.52
2022-09-03T05:28:47.069Z,101302.03
2022-09-03T05:31:19.629Z,101305.72
2022-09-03T05:33:59.602Z,101306.93
2022-09-03T05:36:29.516Z,101310.27
2022-09-03T05:38:58.627Z,101321.84
2022-09-03T05:41:27.316Z,101314.78
2022-09-03T05:44:00.190Z,101313.57
2022-09-03T05:46:32.785Z,101314.38
2022-09-03T05:49:07.442Z,101311.51
2022-09-03T05:51:36.229Z,101318.48
2022-09-03T05:54:04.773Z,101314.78
2022-09-03T05:56:33.594Z,101315.59
2022-09-03T05:59:02.743Z,101325.54
2022-09-03T06:01:32.364Z,101325.60
2022-09-03T06:04:01.719Z,101328.94
2022-09-03T06:06:30.307Z,101326.13
2022-09-03T06:08:59.913Z,101325.77
2022-09-03T06:11:29.316Z,101324.52
2022-09-03T06:13:57.969Z,101321.68
2022-09-03T06:16:31.650Z,101328.74
2022-09-03T06:19:00.844Z,101320.53
2022-09-03T06:21:29.060Z,101313.18
2022-09-03T06:23:58.533Z,101316.48
2022-09-03T06:26:29.799Z,101319.81
2022-09-03T06:28:57.924Z,101322.73
2022-09-03T06:31:25.995Z,101321.48
2022-09-03T06:33:58.600Z,101324.36
2022-09-03T06:36:28.817Z,101303.01
2022-09-03T06:38:57.450Z,101302.59
2022-09-03T06:41:30.213Z,101310.07
2022-09-03T06:44:05.470Z,101308.01
2022-09-03T06:46:36.877Z,101294.87
2022-09-03T06:49:04.711Z,101312.20
2022-09-03T06:51:34.118Z,101301.87
2022-09-03T06:54:02.717Z,101292.41
2022-09-03T06:56:30.527Z,101289.57
2022-09-03T06:58:59.359Z,101296.21
2022-09-03T07:01:29.400Z,101292.09
2022-09-03T07:03:58.289Z,101285.05
2022-09-03T07:06:28.456Z,101286.37
2022-09-03T07:08:56.719Z,101292.58
2022-09-03T07:11:28.108Z,101291.83
2022-09-03T07:13:57.213Z,101286.92
2022-09-03T07:16:26.680Z,101285.29
2022-09-03T07:18:55.482Z,101279.20
2022-09-03T07:21:25.041Z,101281.76
2022-09-03T07:23:53.673Z,101274.01
2022-09-03T07:26:31.652Z,101273.62
2022-09-03T07:29:00.999Z,101275.70
2022-09-03T07:31:33.489Z,101281.10
2022-09-03T07:34:02.574Z,101275.34
2022-09-03T07:36:35.495Z,101268.77
2022-09-03T07:39:05.339Z,101251.15
2022-09-03T07:41:36.050Z,101263.28
2022-09-03T07:44:06.825Z,101261.74
2022-09-03T07:46:35.705Z,101255.20
2022-09-03T07:49:03.885Z,101253.73
2022-09-03T07:51:33.101Z,101252.16
2022-09-03T07:54:06.809Z,101251.48
2022-09-03T07:56:36.152Z,101248.77
2022-09-03T07:59:04.511Z,101247.69
2022-09-03T08:01:39.226Z,101249.84
2022-09-03T08:04:10.219Z,101247.00
2022-09-03T08:06:38.888Z,101259.62
2022-09-03T08:09:08.413Z,101254.81
2022-09-03T08:11:38.804Z,101249.98
2022-09-03T08:14:10.532Z,101251.25
2022-09-03T08:16:43.784Z,101252.55
2022-09-03T08:19:13.397Z,101275.77
2022-09-03T08:21:44.572Z,101275.87
2022-09-03T08:24:13.245Z,101281.27
2022-09-03T08:26:49.086Z,101282.15
2022-09-03T08:29:19.615Z,101284.27
2022-09-03T08:31:47.461Z,101279.34
2022-09-03T08:34:15.882Z,101291.01
2022-09-03T08:36:43.831Z,101284.77
2022-09-03T08:39:12.129Z,101281.00
2022-09-03T08:41:51.946Z,101281.00
2022-09-03T08:44:37.911Z,101270.61
2022-09-03T08:47:30.523Z,101271.85
2022-09-03T08:50:25.931Z,101282.64
2022-09-03T08:53:08.907Z,101289.27
2022-09-03T08:55:52.157Z,101286.37
2022-09-03T08:58:21.549Z,101295.09
2022-09-03T09:01:05.302Z,101299.25
2022-09-03T09:04:08.362Z,101303.37
2022-09-03T09:06:51.249Z,101298.30
2022-09-03T09:09:27.802Z,101303.30
2022-09-03T09:12:03.017Z,101294.12
2022-09-03T09:14:41.219Z,101279.47
2022-09-03T09:17:33.981Z,101298.10
2022-09-03T09:20:37.984Z,101303.83
2022-09-03T09:23:09.998Z,101308.70
2022-09-03T09:25:49.878Z,101318.67
2022-09-03T09:28:22.777Z,101313.14
2022-09-03T09:30:52.635Z,101306.73
2022-09-03T09:33:21.941Z,101314.65
2022-09-03T09:35:50.029Z,101310.85
2022-09-03T09:38:31.604Z,101300.88
2022-09-03T09:41:09.894Z,101296.24
2022-09-03T09:43:37.694Z,101303.17
2022-09-03T09:46:16.371Z,101297.22
2022-09-03T09:48:52.968Z,101303.83
2022-09-03T09:51:23.612Z,101305.66
2022-09-03T09:54:05.659Z,101302.16
2022-09-03T09:56:33.542Z,101296.80
2022-09-03T09:59:08.874Z,101301.08
2022-09-03T10:01:46.273Z,101298.13
2022-09-03T10:04:27.811Z,101295.95
2022-09-03T10:07:07.127Z,101295.59
2022-09-03T10:09:35.043Z,101298.43
2022-09-03T10:12:15.488Z,101310.43
2022-09-03T10:14:52.776Z,101329.10
2022-09-03T10:17:26.590Z,101350.22
2022-09-03T10:20:31.348Z,101360.36
2022-09-03T10:23:16.466Z,101362.16
2022-09-03T10:26:10.274Z,101380.99
2022-09-03T10:28:44.350Z,101403.91
2022-09-03T10:31:24.831Z,101401.06
2022-09-03T10:34:15.901Z,101415.65
2022-09-03T10:37:05.146Z,101410.61
2022-09-03T10:39:53.719Z,101411.85
2022-09-03T10:42:52.846Z,101410.22
2022-09-03T10:45:41.092Z,101411.43
2022-09-03T10:48:23.484Z,101411.82
2022-09-03T10:51:17.475Z,101416.01
2022-09-03T10:54:06.404Z,101406.43
2022-09-03T10:57:01.573Z,101399.79
2022-09-03T10:59:36.654Z,101403.98
2022-09-03T11:02:30.790Z,101394.82
2022-09-03T11:05:22.780Z,101391.52
2022-09-03T11:07:56.613Z,101382.36
2022-09-03T11:10:30.630Z,101384.88
2022-09-03T11:13:15.389Z,101386.94
2022-09-03T11:16:06.197Z,101379.06
2022-09-03T11:18:53.102Z,101363.27
2022-09-03T11:21:25.888Z,101371.15
2022-09-03T11:24:01.767Z,101368.23
2022-09-03T11:26:29.587Z,101364.12
2022-09-03T11:29:10.975Z,101361.17
2022-09-03T11:32:00.146Z,101371.15
2022-09-03T11:34:33.325Z,101374.91
2022-09-03T11:37:09.428Z,101379.91
2022-09-03T11:39:40.162Z,101370.76
2022-09-03T11:42:13.662Z,101352.87
2022-09-03T11:44:51.295Z,101358.73
2022-09-03T11:47:41.867Z,101366.57
2022-09-03T11:50:22.987Z,101373.21
2022-09-03T11:52:55.860Z,101387.76
2022-09-03T11:55:43.672Z,101385.20
2022-09-03T11:58:21.971Z,101384.00
2022-09-03T12:00:51.980Z,101391.48
2022-09-03T12:03:25.291Z,101388.54
2022-09-03T12:06:11.529Z,101376.31
2022-09-03T12:08:45.309Z,101382.03
2022-09-03T12:11:26.200Z,101373.70
2022-09-03T12:14:21.832Z,101372.20
2022-09-03T12:16:58.857Z,101368.43
2022-09-03T12:19:51.746Z,101368.92
2022-09-03T12:22:20.736Z,101375.27
2022-09-03T12:24:49.357Z,101363.92
2022-09-03T12:27:18.442Z,101363.20
2022-09-03T12:29:59.123Z,101381.41
2022-09-03T12:32:33.422Z,101370.59
2022-09-03T12:35:14.280Z,101371.12
2022-09-03T12:40:32.738Z,101362.81
2022-09-03T12:46:10.156Z,101366.57
2022-09-03T12:48:39.724Z,101365.30
2022-09-03T12:53:59.537Z,101365.66
2022-09-03T12:56:28.819Z,101370.79
2022-09-03T12:58:59.830Z,101366.15
2022-09-03T13:01:33.937Z,101360.42
2022-09-03T13:04:10.269Z,101364.38
2022-09-03T13:07:09.211Z,101365.63
2022-09-03T13:09:38.993Z,101355.55
2022-09-03T13:12:07.179Z,101363.79
2022-09-03T13:14:45.948Z,101355.03
2022-09-03T13:17:19.743Z,101356.34
2022-09-03T13:19:57.598Z,101343.95
2022-09-03T13:22:40.528Z,101337.41
2022-09-03T13:25:21.583Z,101347.25
2022-09-03T13:28:17.436Z,101341.59
2022-09-03T13:31:06.440Z,101342.84
2022-09-03T13:33:45.020Z,101341.79
2022-09-03T13:36:18.272Z,101336.52
2022-09-03T13:38:56.299Z,101340.19
2022-09-03T13:41:45.777Z,101341.82
2022-09-03T13:44:19.751Z,101336.42
2022-09-03T13:46:57.547Z,101339.23
2022-09-03T13:50:07.389Z,101333.45
2022-09-03T13:52:53.526Z,101331.16
2022-09-03T13:55:35.870Z,101331.52
2022-09-03T13:58:09.641Z,101320.24
2022-09-03T14:00:59.333Z,101318.93
2022-09-03T14:03:38.367Z,101313.90
2022-09-03T14:06:27.905Z,101318.64
2022-09-03T14:09:23.567Z,101318.12
2022-09-03T14:11:57.300Z,101320.77
2022-09-03T14:14:52.718Z,101320.66
2022-09-03T14:17:39.006Z,101320.83
2022-09-03T14:20:20.793Z,101321.29
2022-09-03T14:23:00.974Z,101316.22
2022-09-03T14:25:28.964Z,101309.94
2022-09-03T14:27:57.064Z,101313.05
2022-09-03T14:30:49.623Z,101320.70
2022-09-03T14:33:45.897Z,101321.02
2022-09-03T14:36:35.699Z,101318.60
2022-09-03T14:39:25.203Z,101321.22
2022-09-03T14:42:04.541Z,101326.35
2022-09-03T14:45:26.852Z,101322.20
2022-09-03T14:48:20.327Z,101318.08
2022-09-03T14:51:03.145Z,101314.52
2022-09-03T14:53:59.601Z,101311.77
2022-09-03T14:56:56.711Z,101315.66
2022-09-03T14:59:49.889Z,101301.60
2022-09-03T15:02:35.825Z,101311.94
2022-09-03T15:05:31.941Z,101302.26
2022-09-03T15:08:09.415Z,101297.45
2022-09-03T15:10:51.178Z,101298.40
2022-09-03T15:13:32.506Z,101300.16
2022-09-03T15:16:36.098Z,101293.95
2022-09-03T15:19:28.504Z,101287.05
2022-09-03T15:22:04.927Z,101290.09
2022-09-03T15:24:45.059Z,101293.07
2022-09-03T15:27:18.807Z,101287.80
2022-09-03T15:29:46.508Z,101281.33
2022-09-03T15:32:38.427Z,101286.43
2022-09-03T15:35:28.154Z,101293.13
2022-09-03T15:38:12.073Z,101289.47
2022-09-03T15:40:47.202Z,101302.03
2022-09-03T15:43:29.116Z,101305.92
2022-09-03T15:46:01.259Z,101303.50
2022-09-03T15:48:52.136Z,101299.80
2022-09-03T15:51:30.053Z,101296.57
2022-09-03T15:53:58.195Z,101301.60
2022-09-03T15:56:53.838Z,101294.12
2022-09-03T15:59:44.031Z,101299.58
2022-09-03T16:02:35.638Z,101304.61
2022-09-03T16:05:30.799Z,101310.92
2022-09-03T16:08:17.749Z,101307.62
2022-09-03T16:11:04.167Z,101306.84
2022-09-03T16:13:55.604Z,101318.48
2022-09-03T16:17:00.950Z,101316.88
2022-09-03T16:19:58.690Z,101321.91
2022-09-03T16:22:34.544Z,101317.43
2022-09-03T16:25:30.950Z,101316.61
2022-09-03T16:28:15.170Z,101320.47
2022-09-03T16:31:12.260Z,101319.75
2022-09-03T16:33:52.882Z,101314.35
2022-09-03T16:36:30.133Z,101318.96
2022-09-03T16:39:21.472Z,101328.15
2022-09-03T16:42:22.095Z,101327.73
2022-09-03T16:45:13.155Z,101329.46
2022-09-03T16:48:08.644Z,101328.64
2022-09-03T16:50:41.815Z,101341.55
2022-09-03T16:53:16.851Z,101339.10
2022-09-03T16:55:58.384Z,101337.02
2022-09-03T16:58:46.412Z,101337.86
2022-09-03T17:01:32.920Z,101343.29
2022-09-03T17:04:09.667Z,101349.96
2022-09-03T17:06:57.999Z,101345.80
2022-09-03T17:09:35.813Z,101349.14
2022-09-03T17:12:20.767Z,101335.80
2022-09-03T17:14:55.222Z,101338.32
2022-09-03T17:17:38.519Z,101338.74
2022-09-03T17:20:50.490Z,101337.50
2022-09-03T17:23:30.578Z,101341.66
2022-09-03T17:26:13.615Z,101345.38
2022-09-03T17:28:41.307Z,101347.09
2022-09-03T17:31:25.523Z,101356.20
2022-09-03T17:34:08.773Z,101344.56
2022-09-03T17:36:38.884Z,101349.14
2022-09-03T17:39:09.728Z,101340.80
2022-09-03T17:42:08.084Z,101338.74
2022-09-03T17:44:44.934Z,101348.72
2022-09-03T17:47:27.209Z,101345.38
2022-09-03T17:49:57.498Z,101340.84
2022-09-03T17:52:31.551Z,101340.41
2022-09-03T17:55:01.468Z,101347.48
2022-09-03T17:57:32.800Z,101347.90
2022-09-03T18:00:09.472Z,101349.57
2022-09-03T18:03:10.636Z,101354.93
2022-09-03T18:05:55.939Z,101362.41
2022-09-03T18:08:27.949Z,101347.48
2022-09-03T18:11:15.568Z,101352.45
2022-09-03T18:13:56.602Z,101355.78
2022-09-03T18:16:27.285Z,101356.17
2022-09-03T18:19:20.337Z,101354.08
2022-09-03T18:22:07.278Z,101362.77
2022-09-03T18:24:58.914Z,101373.96
2022-09-03T18:28:07.869Z,101386.41
2022-09-03T18:30:54.117Z,101380.59
2022-09-03T18:33:43.562Z,101388.45
2022-09-03T18:36:30.512Z,101388.80
2022-09-03T18:39:27.582Z,101389.23
2022-09-03T18:42:35.822Z,101400.41
2022-09-03T18:45:47.833Z,101403.68
2022-09-03T18:48:56.335Z,101397.86
2022-09-03T18:51:47.593Z,101395.34
2022-09-03T18:55:08.267Z,101407.38
2022-09-03T18:58:20.705Z,101410.28
2022-09-03T19:01:27.236Z,101414.77
2022-09-03T19:04:17.944Z,101416.79
2022-09-03T19:07:16.602Z,101420.06
2022-09-03T19:10:13.899Z,101430.36
2022-09-03T19:13:09.530Z,101431.60
2022-09-03T19:16:07.692Z,101429.09
2022-09-03T19:19:15.976Z,101432.78
2022-09-03T19:22:14.091Z,101438.57
2022-09-03T19:25:00.213Z,101433.99
2022-09-03T19:28:11.575Z,101435.59
2022-09-03T19:31:36.708Z,101426.41
2022-09-03T19:34:47.933Z,101428.89
2022-09-03T19:37:50.316Z,101428.01
2022-09-03T19:40:47.678Z,101431.73
2022-09-03T19:44:02.127Z,101435.04
2022-09-03T19:46:51.122Z,101437.09
2022-09-03T19:49:49.215Z,101440.34
2022-09-03T19:52:49.259Z,101439.45
2022-09-03T19:55:42.297Z,101449.29
2022-09-03T19:58:42.502Z,101459.27
2022-09-03T20:01:30.333Z,101459.13
2022-09-03T20:04:18.283Z,101460.37
2022-09-03T20:07:05.196Z,101459.13
2022-09-03T20:09:54.532Z,101470.74
2022-09-03T20:12:22.455Z,101471.63
2022-09-03T20:14:50.235Z,101472.41
2022-09-03T20:17:45.069Z,101463.22
2022-09-03T20:20:25.382Z,101461.52
2022-09-03T20:23:02.624Z,101462.70
2022-09-03T20:25:54.832Z,101462.24
2022-09-03T20:28:38.981Z,101477.54
2022-09-03T20:31:40.356Z,101479.66
2022-09-03T20:34:13.829Z,101489.61
2022-09-03T20:37:30.674Z,101489.97
2022-09-03T20:40:18.226Z,101484.11
2022-09-03T20:43:11.231Z,101482.84
2022-09-03T20:46:02.742Z,101483.63
2022-09-03T20:48:45.798Z,101474.86
2022-09-03T20:51:24.005Z,101490.91
2022-09-03T20:53:51.848Z,101490.42
2022-09-03T20:56:37.888Z,101495.79
2022-09-03T20:59:53.764Z,101490.36
2022-09-03T21:02:59.492Z,101490.72
2022-09-03T21:05:52.273Z,101493.56
2022-09-03T21:08:30.995Z,101490.20
2022-09-03T21:11:29.943Z,101496.44
2022-09-03T21:14:18.627Z,101495.55
2022-09-03T21:17:08.263Z,101490.91
2022-09-03T21:20:02.869Z,101487.91
2022-09-03T21:23:00.504Z,101499.84
2022-09-03T21:25:33.090Z,101497.35
2022-09-03T21:28:23.527Z,101502.72
2022-09-03T21:31:00.915Z,101501.70
2022-09-03T21:33:30.851Z,101513.08
2022-09-03T21:36:08.256Z,101508.02
2022-09-03T21:38:38.479Z,101505.37
2022-09-03T21:41:27.541Z,101510.66
2022-09-03T21:43:59.611Z,101522.76
2022-09-03T21:46:30.576Z,101526.52
2022-09-03T21:49:02.223Z,101529.07
2022-09-03T21:51:50.848Z,101532.73
2022-09-03T21:54:38.300Z,101530.97
2022-09-03T21:57:22.267Z,101524.27
2022-09-03T22:00:19.358Z,101538.26
2022-09-03T22:02:47.969Z,101532.57
2022-09-03T22:05:17.060Z,101533.02
2022-09-03T22:08:08.926Z,101530.94
2022-09-03T22:10:55.070Z,101540.38
2022-09-03T22:13:36.136Z,101546.53
2022-09-03T22:16:48.454Z,101542.28
2022-09-03T22:19:16.646Z,101549.24
2022-09-03T22:21:59.416Z,101547.91
2022-09-03T22:24:46.248Z,101553.30
2022-09-03T22:27:48.061Z,101549.51
2022-09-03T22:30:22.296Z,101552.77
2022-09-03T22:32:55.970Z,101557.65
2022-09-03T22:35:27.007Z,101556.30
2022-09-03T22:38:28.484Z,101557.48
2022-09-03T22:41:01.855Z,101556.24
2022-09-03T22:43:32.658Z,101554.05
2022-09-03T22:46:12.392Z,101559.84
2022-09-03T22:48:58.865Z,101566.73
2022-09-03T22:51:29.037Z,101555.88
2022-09-03T22:54:21.623Z,101565.40
2022-09-03T22:56:49.483Z,101567.09
2022-09-03T22:59:25.236Z,101563.34
2022-09-03T23:02:15.130Z,101560.79
2022-09-03T23:04:45.971Z,101566.09
2022-09-03T23:07:25.789Z,101563.59
2022-09-03T23:09:58.803Z,101567.59
2022-09-03T23:12:35.484Z,101573.02
2022-09-03T23:15:10.325Z,101565.98
2022-09-03T23:17:44.263Z,101577.92
2022-09-03T23:20:24.022Z,101574.59
2022-09-03T23:23:00.987Z,101576.64
2022-09-03T23:25:38.059Z,101571.70
2022-09-03T23:28:29.602Z,101585.30
2022-09-03T23:31:08.704Z,101585.66
2022-09-03T23:33:36.513Z,101581.12
2022-09-03T23:36:09.974Z,101581.05
2022-09-03T23:39:03.931Z,101588.35
2022-09-03T23:41:46.914Z,101583.70
2022-09-03T23:44:35.791Z,101583.25
2022-09-03T23:47:35.025Z,101588.58
2022-09-03T23:50:22.622Z,101588.52
2022-09-03T23:52:56.916Z,101595.05
2022-09-03T23:55:30.367Z,101590.12
2022-09-03T23:58:08.122Z,101596.62
